sensor_id;sensor_type;location;lat;lon;timestamp;temperature;humidity
292;DHT22;23311;48.776;9.162;2023-08-31T00:02:26;14.00;95.50
292;DHT22;23311;48.776;9.162;2023-08-31T00:04:56;13.90;95.50
292;DHT22;23311;48.776;9.162;2023-08-31T00:07:25;13.80;95.50
292;DHT22;23311;48.776;9.162;2023-08-31T00:09:54;13.80;95.50
292;DHT22;23311;48.776;9.162;2023-08-31T00:12:22;13.70;95.50
292;DHT22;23311;48.776;9.162;2023-08-31T00:14:51;13.60;95.50
292;DHT22;23311;48.776;9.162;2023-08-31T00:17:19;13.60;95.50
292;DHT22;23311;48.776;9.162;2023-08-31T00:19:47;13.60;95.50
292;DHT22;23311;48.776;9.162;2023-08-31T00:22:17;13.50;95.50
292;DHT22;23311;48.776;9.162;2023-08-31T00:24:45;13.50;95.50
292;DHT22;23311;48.776;9.162;2023-08-31T00:27:13;13.40;95.50
292;DHT22;23311;48.776;9.162;2023-08-31T00:29:42;13.30;95.50
292;DHT22;23311;48.776;9.162;2023-08-31T00:32:16;13.20;95.50
292;DHT22;23311;48.776;9.162;2023-08-31T00:34:45;13.10;95.50
292;DHT22;23311;48.776;9.162;2023-08-31T00:37:13;13.20;95.50
292;DHT22;23311;48.776;9.162;2023-08-31T00:39:42;13.30;95.50
292;DHT22;23311;48.776;9.162;2023-08-31T00:42:13;13.20;95.50
292;DHT22;23311;48.776;9.162;2023-08-31T00:44:41;13.20;95.50
292;DHT22;23311;48.776;9.162;2023-08-31T00:47:09;13.40;95.50
292;DHT22;23311;48.776;9.162;2023-08-31T00:49:37;13.40;95.50
292;DHT22;23311;48.776;9.162;2023-08-31T00:52:06;13.30;95.50
292;DHT22;23311;48.776;9.162;2023-08-31T00:54:35;13.30;95.50
292;DHT22;23311;48.776;9.162;2023-08-31T00:57:05;13.30;95.50
292;DHT22;23311;48.776;9.162;2023-08-31T00:59:33;13.30;95.50
292;DHT22;23311;48.776;9.162;2023-08-31T01:02:10;13.10;95.50
292;DHT22;23311;48.776;9.162;2023-08-31T01:04:46;12.90;95.50
292;DHT22;23311;48.776;9.162;2023-08-31T01:07:21;12.70;95.50
292;DHT22;23311;48.776;9.162;2023-08-31T01:10:02;12.60;95.50
292;DHT22;23311;48.776;9.162;2023-08-31T01:12:36;12.90;95.50
292;DHT22;23311;48.776;9.162;2023-08-31T01:15:10;12.80;95.50
292;DHT22;23311;48.776;9.162;2023-08-31T01:17:42;12.60;95.50
292;DHT22;23311;48.776;9.162;2023-08-31T01:20:15;12.50;95.50
292;DHT22;23311;48.776;9.162;2023-08-31T01:23:00;12.70;95.50
292;DHT22;23311;48.776;9.162;2023-08-31T01:25:31;12.60;95.50
292;DHT22;23311;48.776;9.162;2023-08-31T01:28:00;12.30;95.50
292;DHT22;23311;48.776;9.162;2023-08-31T01:30:30;12.30;95.50
292;DHT22;23311;48.776;9.162;2023-08-31T01:32:59;12.30;95.50
292;DHT22;23311;48.776;9.162;2023-08-31T01:35:32;12.40;95.50
292;DHT22;23311;48.776;9.162;2023-08-31T01:38:03;12.40;95.50
292;DHT22;23311;48.776;9.162;2023-08-31T01:40:40;12.50;95.50
292;DHT22;23311;48.776;9.162;2023-08-31T01:43:10;12.50;95.50
292;DHT22;23311;48.776;9.162;2023-08-31T01:45:40;12.60;95.50
292;DHT22;23311;48.776;9.162;2023-08-31T01:48:09;12.50;95.50
292;DHT22;23311;48.776;9.162;2023-08-31T01:50:38;12.40;95.50
292;DHT22;23311;48.776;9.162;2023-08-31T01:53:06;12.40;95.50
292;DHT22;23311;48.776;9.162;2023-08-31T01:55:37;12.60;95.50
292;DHT22;23311;48.776;9.162;2023-08-31T01:58:05;12.60;95.50
292;DHT22;23311;48.776;9.162;2023-08-31T02:00:33;12.70;95.50
292;DHT22;23311;48.776;9.162;2023-08-31T02:03:02;12.80;95.50
292;DHT22;23311;48.776;9.162;2023-08-31T02:05:31;12.90;95.50
292;DHT22;23311;48.776;9.162;2023-08-31T02:07:59;12.90;95.50
292;DHT22;23311;48.776;9.162;2023-08-31T02:10:27;12.90;95.50
292;DHT22;23311;48.776;9.162;2023-08-31T02:12:57;13.10;95.50
292;DHT22;23311;48.776;9.162;2023-08-31T02:15:26;13.10;95.50
292;DHT22;23311;48.776;9.162;2023-08-31T02:17:54;13.10;95.50
292;DHT22;23311;48.776;9.162;2023-08-31T02:20:22;13.10;95.50
292;DHT22;23311;48.776;9.162;2023-08-31T02:22:51;13.20;95.50
292;DHT22;23311;48.776;9.162;2023-08-31T02:25:19;13.30;95.50
292;DHT22;23311;48.776;9.162;2023-08-31T02:27:47;13.30;95.50
292;DHT22;23311;48.776;9.162;2023-08-31T02:30:16;13.30;95.50
292;DHT22;23311;48.776;9.162;2023-08-31T02:32:44;13.30;95.50
292;DHT22;23311;48.776;9.162;2023-08-31T02:35:14;13.30;95.50
292;DHT22;23311;48.776;9.162;2023-08-31T02:37:42;13.40;95.50
292;DHT22;23311;48.776;9.162;2023-08-31T02:40:11;13.50;95.50
292;DHT22;23311;48.776;9.162;2023-08-31T02:42:39;13.50;95.50
292;DHT22;23311;48.776;9.162;2023-08-31T02:45:08;13.50;95.50
292;DHT22;23311;48.776;9.162;2023-08-31T02:47:37;13.50;95.50
292;DHT22;23311;48.776;9.162;2023-08-31T02:50:07;13.50;95.50
292;DHT22;23311;48.776;9.162;2023-08-31T02:52:35;13.50;95.50
292;DHT22;23311;48.776;9.162;2023-08-31T02:55:04;13.50;95.50
292;DHT22;23311;48.776;9.162;2023-08-31T02:57:33;13.50;95.50
292;DHT22;23311;48.776;9.162;2023-08-31T03:00:01;13.40;95.50
292;DHT22;23311;48.776;9.162;2023-08-31T03:02:31;13.40;95.50
292;DHT22;23311;48.776;9.162;2023-08-31T03:05:00;13.30;95.50
292;DHT22;23311;48.776;9.162;2023-08-31T03:07:29;13.30;95.50
292;DHT22;23311;48.776;9.162;2023-08-31T03:09:58;13.30;95.50
292;DHT22;23311;48.776;9.162;2023-08-31T03:12:26;13.20;95.50
292;DHT22;23311;48.776;9.162;2023-08-31T03:14:54;13.00;95.50
292;DHT22;23311;48.776;9.162;2023-08-31T03:17:22;13.00;95.50
292;DHT22;23311;48.776;9.162;2023-08-31T03:19:50;13.00;95.50
292;DHT22;23311;48.776;9.162;2023-08-31T03:22:20;13.00;95.50
292;DHT22;23311;48.776;9.162;2023-08-31T03:24:48;13.00;95.50
292;DHT22;23311;48.776;9.162;2023-08-31T03:27:16;12.90;95.50
292;DHT22;23311;48.776;9.162;2023-08-31T03:29:45;12.90;95.50
292;DHT22;23311;48.776;9.162;2023-08-31T03:32:13;12.80;95.50
292;DHT22;23311;48.776;9.162;2023-08-31T03:34:41;12.80;95.50
292;DHT22;23311;48.776;9.162;2023-08-31T03:37:10;12.90;95.50
292;DHT22;23311;48.776;9.162;2023-08-31T03:39:39;12.80;95.50
292;DHT22;23311;48.776;9.162;2023-08-31T03:42:08;12.80;95.50
292;DHT22;23311;48.776;9.162;2023-08-31T03:44:36;12.70;95.50
292;DHT22;23311;48.776;9.162;2023-08-31T03:47:05;12.80;95.50
292;DHT22;23311;48.776;9.162;2023-08-31T03:49:33;12.70;95.50
292;DHT22;23311;48.776;9.162;2023-08-31T03:52:01;12.60;95.50
292;DHT22;23311;48.776;9.162;2023-08-31T03:54:30;12.60;95.50
292;DHT22;23311;48.776;9.162;2023-08-31T03:57:00;12.60;95.50
292;DHT22;23311;48.776;9.162;2023-08-31T03:59:28;12.70;95.50
292;DHT22;23311;48.776;9.162;2023-08-31T04:01:56;12.80;95.50
292;DHT22;23311;48.776;9.162;2023-08-31T04:04:24;12.80;95.50
292;DHT22;23311;48.776;9.162;2023-08-31T04:06:53;12.90;95.50
292;DHT22;23311;48.776;9.162;2023-08-31T04:09:21;12.90;95.50
292;DHT22;23311;48.776;9.162;2023-08-31T04:11:50;12.90;95.50
292;DHT22;23311;48.776;9.162;2023-08-31T04:14:19;12.80;95.50
292;DHT22;23311;48.776;9.162;2023-08-31T04:16:48;12.80;95.50
292;DHT22;23311;48.776;9.162;2023-08-31T04:19:17;12.70;95.50
292;DHT22;23311;48.776;9.162;2023-08-31T04:21:45;12.60;95.50
292;DHT22;23311;48.776;9.162;2023-08-31T04:24:13;12.70;95.50
292;DHT22;23311;48.776;9.162;2023-08-31T04:26:47;12.80;95.50
292;DHT22;23311;48.776;9.162;2023-08-31T04:29:39;12.70;95.50
292;DHT22;23311;48.776;9.162;2023-08-31T04:32:08;12.60;95.50
292;DHT22;23311;48.776;9.162;2023-08-31T04:34:36;12.70;95.50
292;DHT22;23311;48.776;9.162;2023-08-31T04:37:04;12.80;95.50
292;DHT22;23311;48.776;9.162;2023-08-31T04:39:32;12.70;95.50
292;DHT22;23311;48.776;9.162;2023-08-31T04:42:00;12.60;95.50
292;DHT22;23311;48.776;9.162;2023-08-31T04:44:29;12.50;95.50
292;DHT22;23311;48.776;9.162;2023-08-31T04:46:59;12.40;95.50
292;DHT22;23311;48.776;9.162;2023-08-31T04:49:27;12.50;95.50
292;DHT22;23311;48.776;9.162;2023-08-31T04:51:56;12.60;95.50
292;DHT22;23311;48.776;9.162;2023-08-31T04:54:24;12.50;95.50
292;DHT22;23311;48.776;9.162;2023-08-31T04:56:52;12.50;95.50
292;DHT22;23311;48.776;9.162;2023-08-31T04:59:20;12.40;95.50
292;DHT22;23311;48.776;9.162;2023-08-31T05:01:48;12.50;95.50
292;DHT22;23311;48.776;9.162;2023-08-31T05:04:18;12.50;95.50
292;DHT22;23311;48.776;9.162;2023-08-31T05:06:46;12.50;95.50
292;DHT22;23311;48.776;9.162;2023-08-31T05:09:14;12.40;95.50
292;DHT22;23311;48.776;9.162;2023-08-31T05:11:42;12.30;95.50
292;DHT22;23311;48.776;9.162;2023-08-31T05:14:10;12.20;95.50
292;DHT22;23311;48.776;9.162;2023-08-31T05:16:38;12.30;95.50
292;DHT22;23311;48.776;9.162;2023-08-31T05:19:06;12.60;95.50
292;DHT22;23311;48.776;9.162;2023-08-31T05:21:36;12.70;95.50
292;DHT22;23311;48.776;9.162;2023-08-31T05:24:04;12.90;95.50
292;DHT22;23311;48.776;9.162;2023-08-31T05:26:32;13.00;95.50
292;DHT22;23311;48.776;9.162;2023-08-31T05:29:01;13.00;95.50
292;DHT22;23311;48.776;9.162;2023-08-31T05:31:31;13.10;95.50
292;DHT22;23311;48.776;9.162;2023-08-31T05:33:59;13.20;95.50
292;DHT22;23311;48.776;9.162;2023-08-31T05:36:27;13.30;95.50
292;DHT22;23311;48.776;9.162;2023-08-31T05:38:56;13.50;95.50
292;DHT22;23311;48.776;9.162;2023-08-31T05:41:25;13.50;95.50
292;DHT22;23311;48.776;9.162;2023-08-31T05:43:53;13.50;95.50
292;DHT22;23311;48.776;9.162;2023-08-31T05:46:21;13.40;95.50
292;DHT22;23311;48.776;9.162;2023-08-31T05:48:50;13.20;95.50
292;DHT22;23311;48.776;9.162;2023-08-31T05:51:19;13.30;95.50
292;DHT22;23311;48.776;9.162;2023-08-31T05:53:47;13.40;95.50
292;DHT22;23311;48.776;9.162;2023-08-31T05:56:16;13.60;95.50
292;DHT22;23311;48.776;9.162;2023-08-31T05:58:45;13.60;95.50
292;DHT22;23311;48.776;9.162;2023-08-31T06:01:14;13.60;95.50
292;DHT22;23311;48.776;9.162;2023-08-31T06:03:42;13.60;95.50
292;DHT22;23311;48.776;9.162;2023-08-31T06:06:10;13.60;95.50
292;DHT22;23311;48.776;9.162;2023-08-31T06:08:38;13.60;95.50
292;DHT22;23311;48.776;9.162;2023-08-31T06:11:09;13.70;95.50
292;DHT22;23311;48.776;9.162;2023-08-31T06:13:39;13.80;95.50
292;DHT22;23311;48.776;9.162;2023-08-31T06:16:08;13.80;95.50
292;DHT22;23311;48.776;9.162;2023-08-31T06:18:36;13.80;95.50
292;DHT22;23311;48.776;9.162;2023-08-31T06:21:04;13.90;95.50
292;DHT22;23311;48.776;9.162;2023-08-31T06:23:32;14.00;95.50
292;DHT22;23311;48.776;9.162;2023-08-31T06:26:01;14.10;95.50
292;DHT22;23311;48.776;9.162;2023-08-31T06:28:30;14.20;95.50
292;DHT22;23311;48.776;9.162;2023-08-31T06:30:59;14.30;95.50
292;DHT22;23311;48.776;9.162;2023-08-31T06:33:28;14.30;95.50
292;DHT22;23311;48.776;9.162;2023-08-31T06:35:56;14.40;95.50
292;DHT22;23311;48.776;9.162;2023-08-31T06:38:24;14.40;95.50
292;DHT22;23311;48.776;9.162;2023-08-31T06:40:52;14.50;95.50
292;DHT22;23311;48.776;9.162;2023-08-31T06:43:25;14.60;95.50
292;DHT22;23311;48.776;9.162;2023-08-31T06:45:54;14.80;95.50
292;DHT22;23311;48.776;9.162;2023-08-31T06:48:34;15.00;95.50
292;DHT22;23311;48.776;9.162;2023-08-31T06:51:02;15.30;95.50
292;DHT22;23311;48.776;9.162;2023-08-31T06:53:31;15.60;95.50
292;DHT22;23311;48.776;9.162;2023-08-31T06:55:59;15.80;95.50
292;DHT22;23311;48.776;9.162;2023-08-31T06:58:27;16.10;95.50
292;DHT22;23311;48.776;9.162;2023-08-31T07:00:56;16.70;95.50
292;DHT22;23311;48.776;9.162;2023-08-31T07:03:25;16.80;95.50
292;DHT22;23311;48.776;9.162;2023-08-31T07:05:55;17.00;95.50
292;DHT22;23311;48.776;9.162;2023-08-31T07:08:23;16.80;95.50
292;DHT22;23311;48.776;9.162;2023-08-31T07:10:51;16.70;95.50
292;DHT22;23311;48.776;9.162;2023-08-31T07:13:20;16.70;95.50
292;DHT22;23311;48.776;9.162;2023-08-31T07:15:48;16.70;95.50
292;DHT22;23311;48.776;9.162;2023-08-31T07:18:17;16.80;95.50
292;DHT22;23311;48.776;9.162;2023-08-31T07:20:45;16.80;95.50
292;DHT22;23311;48.776;9.162;2023-08-31T07:23:15;16.70;95.50
292;DHT22;23311;48.776;9.162;2023-08-31T07:25:43;16.70;95.50
292;DHT22;23311;48.776;9.162;2023-08-31T07:28:12;16.90;95.50
292;DHT22;23311;48.776;9.162;2023-08-31T07:30:40;17.30;95.50
292;DHT22;23311;48.776;9.162;2023-08-31T07:33:08;18.20;95.50
292;DHT22;23311;48.776;9.162;2023-08-31T07:35:55;18.50;95.50
292;DHT22;23311;48.776;9.162;2023-08-31T07:38:27;19.00;95.50
292;DHT22;23311;48.776;9.162;2023-08-31T07:40:55;19.90;95.50
292;DHT22;23311;48.776;9.162;2023-08-31T07:43:24;21.70;93.90
292;DHT22;23311;48.776;9.162;2023-08-31T07:45:53;22.80;89.80
292;DHT22;23311;48.776;9.162;2023-08-31T07:48:21;22.60;88.40
292;DHT22;23311;48.776;9.162;2023-08-31T07:50:49;23.30;88.60
292;DHT22;23311;48.776;9.162;2023-08-31T07:53:18;23.60;86.70
292;DHT22;23311;48.776;9.162;2023-08-31T07:55:54;23.80;82.90
292;DHT22;23311;48.776;9.162;2023-08-31T07:58:23;22.00;85.00
292;DHT22;23311;48.776;9.162;2023-08-31T08:00:53;22.50;85.00
292;DHT22;23311;48.776;9.162;2023-08-31T08:03:22;23.20;82.30
292;DHT22;23311;48.776;9.162;2023-08-31T08:05:51;23.30;80.30
292;DHT22;23311;48.776;9.162;2023-08-31T08:08:19;23.00;81.10
292;DHT22;23311;48.776;9.162;2023-08-31T08:10:51;22.40;82.40
292;DHT22;23311;48.776;9.162;2023-08-31T08:13:21;22.70;80.70
292;DHT22;23311;48.776;9.162;2023-08-31T08:15:49;23.70;79.80
292;DHT22;23311;48.776;9.162;2023-08-31T08:18:17;24.70;76.40
292;DHT22;23311;48.776;9.162;2023-08-31T08:20:47;24.90;76.30
292;DHT22;23311;48.776;9.162;2023-08-31T08:23:16;23.90;78.90
292;DHT22;23311;48.776;9.162;2023-08-31T08:25:44;24.30;76.80
292;DHT22;23311;48.776;9.162;2023-08-31T08:28:12;23.10;79.30
292;DHT22;23311;48.776;9.162;2023-08-31T08:30:42;19.20;88.00
292;DHT22;23311;48.776;9.162;2023-08-31T08:33:12;18.20;89.60
292;DHT22;23311;48.776;9.162;2023-08-31T08:35:41;17.90;91.60
292;DHT22;23311;48.776;9.162;2023-08-31T08:38:09;19.00;89.80
292;DHT22;23311;48.776;9.162;2023-08-31T08:40:37;21.10;84.90
292;DHT22;23311;48.776;9.162;2023-08-31T08:43:07;21.30;82.30
292;DHT22;23311;48.776;9.162;2023-08-31T08:45:37;19.90;84.50
292;DHT22;23311;48.776;9.162;2023-08-31T08:48:09;19.60;84.90
292;DHT22;23311;48.776;9.162;2023-08-31T08:50:38;19.70;85.30
292;DHT22;23311;48.776;9.162;2023-08-31T08:53:07;18.60;88.00
292;DHT22;23311;48.776;9.162;2023-08-31T08:55:36;19.00;87.60
292;DHT22;23311;48.776;9.162;2023-08-31T08:58:21;19.10;87.30
292;DHT22;23311;48.776;9.162;2023-08-31T09:00:50;19.30;87.30
292;DHT22;23311;48.776;9.162;2023-08-31T09:03:21;19.30;87.10
292;DHT22;23311;48.776;9.162;2023-08-31T09:05:51;19.80;86.70
292;DHT22;23311;48.776;9.162;2023-08-31T09:08:25;20.30;86.30
292;DHT22;23311;48.776;9.162;2023-08-31T09:10:56;21.40;83.10
292;DHT22;23311;48.776;9.162;2023-08-31T09:13:26;21.00;83.50
292;DHT22;23311;48.776;9.162;2023-08-31T09:15:55;20.00;86.50
292;DHT22;23311;48.776;9.162;2023-08-31T09:18:29;20.80;84.40
292;DHT22;23311;48.776;9.162;2023-08-31T09:20:59;19.80;85.70
292;DHT22;23311;48.776;9.162;2023-08-31T09:23:28;20.00;87.10
292;DHT22;23311;48.776;9.162;2023-08-31T09:25:56;20.20;85.80
292;DHT22;23311;48.776;9.162;2023-08-31T09:28:26;20.60;85.30
292;DHT22;23311;48.776;9.162;2023-08-31T09:31:04;21.20;83.70
292;DHT22;23311;48.776;9.162;2023-08-31T09:33:35;19.50;86.90
292;DHT22;23311;48.776;9.162;2023-08-31T09:36:06;19.00;86.30
292;DHT22;23311;48.776;9.162;2023-08-31T09:38:41;19.00;88.30
292;DHT22;23311;48.776;9.162;2023-08-31T09:41:10;18.90;87.30
292;DHT22;23311;48.776;9.162;2023-08-31T09:43:38;18.90;86.90
292;DHT22;23311;48.776;9.162;2023-08-31T09:46:07;20.00;84.30
292;DHT22;23311;48.776;9.162;2023-08-31T09:48:40;21.30;80.80
292;DHT22;23311;48.776;9.162;2023-08-31T09:51:10;21.80;78.50
292;DHT22;23311;48.776;9.162;2023-08-31T09:53:39;22.30;77.00
292;DHT22;23311;48.776;9.162;2023-08-31T09:56:13;22.90;74.00
292;DHT22;23311;48.776;9.162;2023-08-31T09:58:44;22.20;75.50
292;DHT22;23311;48.776;9.162;2023-08-31T10:01:12;21.00;78.10
292;DHT22;23311;48.776;9.162;2023-08-31T10:03:56;21.50;77.00
292;DHT22;23311;48.776;9.162;2023-08-31T10:06:25;21.30;75.70
292;DHT22;23311;48.776;9.162;2023-08-31T10:08:54;20.70;75.90
292;DHT22;23311;48.776;9.162;2023-08-31T10:11:24;19.60;79.20
292;DHT22;23311;48.776;9.162;2023-08-31T10:13:55;19.50;79.80
292;DHT22;23311;48.776;9.162;2023-08-31T10:16:25;19.70;80.10
292;DHT22;23311;48.776;9.162;2023-08-31T10:18:56;19.60;80.00
292;DHT22;23311;48.776;9.162;2023-08-31T10:21:24;20.00;79.40
292;DHT22;23311;48.776;9.162;2023-08-31T10:23:52;19.80;79.60
292;DHT22;23311;48.776;9.162;2023-08-31T10:26:24;20.20;79.40
292;DHT22;23311;48.776;9.162;2023-08-31T10:28:53;19.60;80.60
292;DHT22;23311;48.776;9.162;2023-08-31T10:31:22;19.50;80.30
292;DHT22;23311;48.776;9.162;2023-08-31T10:33:59;19.60;81.10
292;DHT22;23311;48.776;9.162;2023-08-31T10:36:38;19.70;81.50
292;DHT22;23311;48.776;9.162;2023-08-31T10:39:11;19.80;81.60
292;DHT22;23311;48.776;9.162;2023-08-31T10:41:40;20.90;80.40
292;DHT22;23311;48.776;9.162;2023-08-31T10:44:18;21.00;79.00
292;DHT22;23311;48.776;9.162;2023-08-31T10:46:48;21.80;78.20
292;DHT22;23311;48.776;9.162;2023-08-31T10:49:19;22.20;77.40
292;DHT22;23311;48.776;9.162;2023-08-31T10:51:49;21.80;76.60
292;DHT22;23311;48.776;9.162;2023-08-31T10:54:22;21.30;78.10
292;DHT22;23311;48.776;9.162;2023-08-31T10:56:53;20.90;77.90
292;DHT22;23311;48.776;9.162;2023-08-31T10:59:21;20.80;77.20
292;DHT22;23311;48.776;9.162;2023-08-31T11:01:53;20.60;78.30
292;DHT22;23311;48.776;9.162;2023-08-31T11:04:24;20.40;78.70
292;DHT22;23311;48.776;9.162;2023-08-31T11:07:14;20.10;79.80
292;DHT22;23311;48.776;9.162;2023-08-31T11:09:43;19.60;81.30
292;DHT22;23311;48.776;9.162;2023-08-31T11:12:12;19.60;82.40
292;DHT22;23311;48.776;9.162;2023-08-31T11:14:40;19.50;82.90
292;DHT22;23311;48.776;9.162;2023-08-31T11:17:09;19.60;83.10
292;DHT22;23311;48.776;9.162;2023-08-31T11:19:39;19.30;83.60
292;DHT22;23311;48.776;9.162;2023-08-31T11:22:09;19.70;83.40
292;DHT22;23311;48.776;9.162;2023-08-31T11:24:38;19.90;82.60
292;DHT22;23311;48.776;9.162;2023-08-31T11:27:07;20.60;81.60
292;DHT22;23311;48.776;9.162;2023-08-31T11:29:38;21.20;79.70
292;DHT22;23311;48.776;9.162;2023-08-31T11:32:07;22.20;78.10
292;DHT22;23311;48.776;9.162;2023-08-31T11:34:35;23.10;76.10
292;DHT22;23311;48.776;9.162;2023-08-31T11:37:05;22.40;76.90
292;DHT22;23311;48.776;9.162;2023-08-31T11:39:33;21.90;77.60
292;DHT22;23311;48.776;9.162;2023-08-31T11:42:02;21.60;78.40
292;DHT22;23311;48.776;9.162;2023-08-31T11:44:30;21.60;78.50
292;DHT22;23311;48.776;9.162;2023-08-31T11:46:59;21.30;78.80
292;DHT22;23311;48.776;9.162;2023-08-31T11:49:27;21.60;78.40
292;DHT22;23311;48.776;9.162;2023-08-31T11:51:56;21.40;78.90
292;DHT22;23311;48.776;9.162;2023-08-31T11:54:26;21.00;79.40
292;DHT22;23311;48.776;9.162;2023-08-31T11:56:55;20.60;81.00
292;DHT22;23311;48.776;9.162;2023-08-31T11:59:23;20.70;80.50
292;DHT22;23311;48.776;9.162;2023-08-31T12:01:54;21.30;80.20
292;DHT22;23311;48.776;9.162;2023-08-31T12:04:26;21.60;78.90
292;DHT22;23311;48.776;9.162;2023-08-31T12:07:01;21.60;78.90
292;DHT22;23311;48.776;9.162;2023-08-31T12:09:32;21.50;79.30
292;DHT22;23311;48.776;9.162;2023-08-31T12:12:01;21.90;78.50
292;DHT22;23311;48.776;9.162;2023-08-31T12:14:31;21.60;78.60
292;DHT22;23311;48.776;9.162;2023-08-31T12:17:06;21.60;78.70
292;DHT22;23311;48.776;9.162;2023-08-31T12:19:37;22.30;78.10
292;DHT22;23311;48.776;9.162;2023-08-31T12:22:05;22.60;77.30
292;DHT22;23311;48.776;9.162;2023-08-31T12:24:41;22.70;76.40
292;DHT22;23311;48.776;9.162;2023-08-31T12:27:09;21.90;77.60
292;DHT22;23311;48.776;9.162;2023-08-31T12:29:37;22.30;77.40
292;DHT22;23311;48.776;9.162;2023-08-31T12:32:06;21.30;77.80
292;DHT22;23311;48.776;9.162;2023-08-31T12:34:34;21.00;79.20
292;DHT22;23311;48.776;9.162;2023-08-31T12:37:03;20.90;79.90
292;DHT22;23311;48.776;9.162;2023-08-31T12:39:31;22.00;78.00
292;DHT22;23311;48.776;9.162;2023-08-31T12:42:01;22.20;76.10
292;DHT22;23311;48.776;9.162;2023-08-31T12:44:48;22.30;76.80
292;DHT22;23311;48.776;9.162;2023-08-31T12:47:16;22.20;76.30
292;DHT22;23311;48.776;9.162;2023-08-31T12:49:45;22.10;76.80
292;DHT22;23311;48.776;9.162;2023-08-31T12:52:13;21.40;77.50
292;DHT22;23311;48.776;9.162;2023-08-31T12:54:41;21.20;78.90
292;DHT22;23311;48.776;9.162;2023-08-31T12:57:11;21.00;79.00
292;DHT22;23311;48.776;9.162;2023-08-31T12:59:39;20.70;80.00
292;DHT22;23311;48.776;9.162;2023-08-31T13:02:09;20.70;80.00
292;DHT22;23311;48.776;9.162;2023-08-31T13:04:39;20.30;81.00
292;DHT22;23311;48.776;9.162;2023-08-31T13:07:08;20.60;80.90
292;DHT22;23311;48.776;9.162;2023-08-31T13:09:36;20.70;80.90
292;DHT22;23311;48.776;9.162;2023-08-31T13:12:04;21.00;80.80
292;DHT22;23311;48.776;9.162;2023-08-31T13:14:34;21.20;80.10
292;DHT22;23311;48.776;9.162;2023-08-31T13:17:02;21.20;80.10
292;DHT22;23311;48.776;9.162;2023-08-31T13:19:31;21.40;79.90
292;DHT22;23311;48.776;9.162;2023-08-31T13:21:59;21.20;80.40
292;DHT22;23311;48.776;9.162;2023-08-31T13:24:27;20.90;80.50
292;DHT22;23311;48.776;9.162;2023-08-31T13:26:55;22.00;80.00
292;DHT22;23311;48.776;9.162;2023-08-31T13:29:23;23.90;75.60
292;DHT22;23311;48.776;9.162;2023-08-31T13:31:53;25.30;72.70
292;DHT22;23311;48.776;9.162;2023-08-31T13:34:21;26.20;70.70
292;DHT22;23311;48.776;9.162;2023-08-31T13:36:49;26.30;70.20
292;DHT22;23311;48.776;9.162;2023-08-31T13:39:17;26.00;69.60
292;DHT22;23311;48.776;9.162;2023-08-31T13:41:45;25.40;70.70
292;DHT22;23311;48.776;9.162;2023-08-31T13:44:13;25.40;71.20
292;DHT22;23311;48.776;9.162;2023-08-31T13:46:42;25.00;70.90
292;DHT22;23311;48.776;9.162;2023-08-31T13:49:11;23.50;73.70
292;DHT22;23311;48.776;9.162;2023-08-31T13:51:40;23.20;74.60
292;DHT22;23311;48.776;9.162;2023-08-31T13:54:08;23.00;75.10
292;DHT22;23311;48.776;9.162;2023-08-31T13:56:36;23.00;75.80
292;DHT22;23311;48.776;9.162;2023-08-31T13:59:04;22.20;76.10
292;DHT22;23311;48.776;9.162;2023-08-31T14:01:32;22.20;77.10
292;DHT22;23311;48.776;9.162;2023-08-31T14:04:01;21.40;78.20
292;DHT22;23311;48.776;9.162;2023-08-31T14:06:32;21.10;79.60
292;DHT22;23311;48.776;9.162;2023-08-31T14:09:00;21.00;80.30
292;DHT22;23311;48.776;9.162;2023-08-31T14:11:28;20.90;80.40
292;DHT22;23311;48.776;9.162;2023-08-31T14:14:02;20.60;81.50
292;DHT22;23311;48.776;9.162;2023-08-31T14:16:32;20.50;81.90
292;DHT22;23311;48.776;9.162;2023-08-31T14:19:03;20.50;82.60
292;DHT22;23311;48.776;9.162;2023-08-31T14:21:34;20.20;83.10
292;DHT22;23311;48.776;9.162;2023-08-31T14:24:02;19.90;84.30
292;DHT22;23311;48.776;9.162;2023-08-31T14:26:31;19.90;84.90
292;DHT22;23311;48.776;9.162;2023-08-31T14:28:59;19.90;84.90
292;DHT22;23311;48.776;9.162;2023-08-31T14:31:27;19.90;85.30
292;DHT22;23311;48.776;9.162;2023-08-31T14:33:55;19.80;85.30
292;DHT22;23311;48.776;9.162;2023-08-31T14:36:25;19.90;85.90
292;DHT22;23311;48.776;9.162;2023-08-31T14:38:55;20.00;85.90
292;DHT22;23311;48.776;9.162;2023-08-31T14:41:23;20.00;85.70
292;DHT22;23311;48.776;9.162;2023-08-31T14:43:51;20.10;85.60
292;DHT22;23311;48.776;9.162;2023-08-31T14:46:19;20.00;85.70
292;DHT22;23311;48.776;9.162;2023-08-31T14:48:48;19.90;86.30
292;DHT22;23311;48.776;9.162;2023-08-31T14:51:17;19.80;86.10
292;DHT22;23311;48.776;9.162;2023-08-31T14:53:45;19.90;86.00
292;DHT22;23311;48.776;9.162;2023-08-31T14:56:14;19.90;86.00
292;DHT22;23311;48.776;9.162;2023-08-31T14:58:42;19.90;86.40
292;DHT22;23311;48.776;9.162;2023-08-31T15:01:11;19.90;86.10
292;DHT22;23311;48.776;9.162;2023-08-31T15:03:39;19.80;86.50
292;DHT22;23311;48.776;9.162;2023-08-31T15:06:07;20.10;86.40
292;DHT22;23311;48.776;9.162;2023-08-31T15:08:37;20.10;86.50
292;DHT22;23311;48.776;9.162;2023-08-31T15:11:05;20.30;85.60
292;DHT22;23311;48.776;9.162;2023-08-31T15:13:34;20.30;85.60
292;DHT22;23311;48.776;9.162;2023-08-31T15:16:03;20.20;85.20
292;DHT22;23311;48.776;9.162;2023-08-31T15:18:31;20.10;85.60
292;DHT22;23311;48.776;9.162;2023-08-31T15:20:59;20.10;85.80
292;DHT22;23311;48.776;9.162;2023-08-31T15:23:28;20.10;85.40
292;DHT22;23311;48.776;9.162;2023-08-31T15:25:59;20.40;85.40
292;DHT22;23311;48.776;9.162;2023-08-31T15:28:28;20.60;85.10
292;DHT22;23311;48.776;9.162;2023-08-31T15:30:57;20.90;84.10
292;DHT22;23311;48.776;9.162;2023-08-31T15:33:25;21.20;84.00
292;DHT22;23311;48.776;9.162;2023-08-31T15:36:03;21.40;83.50
292;DHT22;23311;48.776;9.162;2023-08-31T15:38:32;21.60;82.80
292;DHT22;23311;48.776;9.162;2023-08-31T15:41:01;21.20;83.40
292;DHT22;23311;48.776;9.162;2023-08-31T15:43:30;21.20;83.50
292;DHT22;23311;48.776;9.162;2023-08-31T15:46:00;20.60;84.50
292;DHT22;23311;48.776;9.162;2023-08-31T15:48:29;20.30;85.30
292;DHT22;23311;48.776;9.162;2023-08-31T15:50:58;20.10;86.00
292;DHT22;23311;48.776;9.162;2023-08-31T15:53:26;19.90;87.00
292;DHT22;23311;48.776;9.162;2023-08-31T15:55:55;19.80;87.70
292;DHT22;23311;48.776;9.162;2023-08-31T15:58:24;19.70;88.10
292;DHT22;23311;48.776;9.162;2023-08-31T16:00:53;19.60;88.40
292;DHT22;23311;48.776;9.162;2023-08-31T16:03:30;19.60;88.60
292;DHT22;23311;48.776;9.162;2023-08-31T16:05:58;19.50;88.80
292;DHT22;23311;48.776;9.162;2023-08-31T16:08:27;19.50;89.30
292;DHT22;23311;48.776;9.162;2023-08-31T16:10:56;19.50;89.40
292;DHT22;23311;48.776;9.162;2023-08-31T16:13:24;19.50;89.40
292;DHT22;23311;48.776;9.162;2023-08-31T16:15:53;19.60;89.50
292;DHT22;23311;48.776;9.162;2023-08-31T16:18:22;19.90;88.90